Latest Weather Observations for Jandakot

IDW60801

Issued at 6:04 am WST Thursday 19 October 2017 (issued every 30 minutes, with the page automatically refreshed every 10 minutes)

About weather observations | Map of weather stations | Latest weather observations for WA | Other Formats
Station Details ID: 009172 Name: JANDAKOT AERO Lat: -32.10 Lon: 115.88 Height: 30.0 m
Data from the previous 72 hours. | See also: Recent months at Jandakot
Date/Time
WST
Temp
°C
App
Temp
°C
Dew
Point
°C
Rel
Hum
%
Delta-T
°C
Wind Press
QNH
hPa
Press
MSL
hPa
Rain since
9am
mm
Dir  Spd
km/h
Gust
km/h
Spd
kts
Gust
kts
19/06:00am 6.8 4.4 4.5 85 1.0 ESE 6 11 3 6 1026.6 1026.6 0.0
19/05:30am 5.6 3.1 3.9 89 0.7 ESE 6 9 3 5 1026.4 1026.4 0.0
19/05:00am 5.2 2.7 3.8 91 0.6 SSE 6 7 3 4 1026.4 1026.4 0.0
19/04:30am 7.1 4.6 4.6 84 1.1 SSE 7 9 4 5 1026.0 1026.0 0.0
19/04:00am 6.8 3.6 5.2 89 0.7 SSE 11 13 6 7 1025.7 1025.7 0.0
19/03:30am 7.3 4.6 5.5 88 0.8 S 9 11 5 6 1025.6 1025.6 0.0
19/03:00am 7.6 4.9 5.6 87 0.9 S 9 11 5 6 1025.5 1025.5 0.0
19/02:30am 7.8 4.8 5.8 87 0.9 S 11 13 6 7 1025.4 1025.4 0.0
19/02:00am 8.0 5.1 6.5 90 0.7 SSE 11 13 6 7 1025.3 1025.3 0.0
19/01:30am 8.4 5.2 6.9 90 0.7 S 13 15 7 8 1025.3 1025.3 0.0
19/01:00am 8.6 5.5 7.3 91 0.6 S 13 15 7 8 1025.4 1025.4 0.0
19/12:30am 8.1 5.7 6.8 91 0.6 S 9 11 5 6 1025.4 1025.4 0.0
19/12:00am 8.2 6.1 6.7 90 0.7 S 7 7 4 4 1025.4 1025.4 0.0
 
Date/Time
WST
Temp
°C
App
Temp
°C
Dew
Point
°C
Rel
Hum
%
Delta-T
°C
Wind Press
QNH
hPa
Press
MSL
hPa
Rain since
9am
mm
Dir  Spd
km/h
Gust
km/h
Spd
kts
Gust
kts
18/11:30pm 8.5 6.1 6.8 89 0.8 S 9 9 5 5 1025.2 1025.2 0.0
18/11:00pm 9.0 7.2 7.1 88 0.9 S 6 7 3 4 1025.3 1025.3 0.0
18/10:30pm 9.2 7.8 7.1 87 1.0 S 4 6 2 3 1025.3 1025.3 0.0
18/10:00pm 10.6 8.7 7.7 82 1.4 S 7 9 4 5 1025.1 1025.1 0.0
18/09:30pm 11.0 8.8 7.7 80 1.6 S 9 13 5 7 1025.2 1025.2 0.0
18/09:00pm 11.6 9.7 7.7 77 1.9 S 7 9 4 5 1025.1 1025.1 0.0
18/08:30pm 12.2 9.5 7.4 72 2.3 SSE 11 13 6 7 1024.6 1024.6 0.0
18/08:00pm 13.3 10.2 7.1 66 3.0 S 13 17 7 9 1024.2 1024.2 0.0
18/07:30pm 13.9 10.0 6.9 62 3.4 SSW 17 22 9 12 1024.0 1024.0 0.0
18/07:00pm 14.2 10.3 7.0 62 3.5 SSW 17 22 9 12 1023.4 1023.4 0.0
18/06:30pm 14.7 9.8 4.3 49 4.8 SSW 19 24 10 13 1023.1 1023.1 0.0
18/06:00pm 15.6 10.2 2.7 42 5.8 SSW 20 28 11 15 1022.7 1022.7 0.0
18/05:30pm 16.4 10.6 4.2 44 5.7 SW 24 32 13 17 1022.4 1022.4 0.0
18/05:00pm 16.8 11.4 2.7 39 6.4 SSW 20 30 11 16 1022.1 1022.1 0.0
18/04:30pm 17.3 11.4 3.8 40 6.3 WSW 24 32 13 17 1021.7 1021.7 0.0
18/04:00pm 17.7 11.3 3.2 38 6.7 WSW 26 33 14 18 1021.5 1021.5 0.0
18/03:30pm 18.5 13.0 4.1 38 6.8 WSW 22 32 12 17 1021.1 1021.1 0.0
18/03:00pm 18.0 12.0 3.3 37 6.8 WSW 24 37 13 20 1021.1 1021.1 0.0
18/02:30pm 18.0 11.8 4.2 40 6.5 SW 26 35 14 19 1021.0 1021.0 0.0
18/02:00pm 17.5 11.1 3.2 38 6.6 SW 26 41 14 22 1021.2 1021.2 0.0
18/01:30pm 18.0 11.0 1.7 33 7.3 WSW 28 35 15 19 1021.1 1021.1 0.0
18/01:00pm 18.0 11.5 4.8 41 6.3 SW 28 35 15 19 1020.9 1020.9 0.0
18/12:30pm 18.4 12.0 3.1 36 7.1 SW 26 35 14 19 1020.7 1020.7 0.0
18/12:00pm 17.6 10.1 1.0 32 7.3 SW 30 37 16 20 1020.8 1020.8 0.0
18/11:30am 17.2 10.4 5.3 45 5.7 SW 30 41 16 22 1020.8 1020.8 0.0
18/11:00am 17.7 11.6 4.9 42 6.1 WSW 26 35 14 19 1020.6 1020.6 0.0
18/10:30am 17.6 11.3 5.9 46 5.7 SW 28 41 15 22 1020.4 1020.4 0.0
18/10:00am 16.6 10.1 4.5 44 5.7 SW 28 37 15 20 1020.3 1020.3 0.0
18/09:30am 17.1 10.6 4.9 44 5.8 SW 28 41 15 22 1020.0 1020.0 0.0
18/09:00am 16.9 10.6 5.7 47 5.4 SW 28 35 15 19 1019.7 1019.7 5.2
18/08:30am 16.3 9.9 5.4 48 5.2 SW 28 37 15 20 1019.3 1019.3 5.2
18/08:00am 16.1 10.7 6.5 53 4.7 SW 24 33 13 18 1018.9 1018.9 5.2
18/07:30am 15.2 9.7 5.8 53 4.5 SW 24 30 13 16 1018.6 1018.6 5.2
18/07:00am 14.6 10.1 6.3 57 4.0 WSW 19 28 10 15 1018.1 1018.1 5.2
18/06:30am 13.3 9.9 7.6 68 2.8 SSW 15 19 8 10 1017.6 1017.6 5.2
18/06:00am 13.4 9.2 5.8 60 3.6 WSW 17 30 9 16 1017.1 1017.1 5.2
18/05:30am 13.0 9.7 6.5 64 3.1 WSW 13 17 7 9 1016.8 1016.8 5.2
18/05:00am 12.5 9.1 5.9 64 3.1 WSW 13 17 7 9 1016.2 1016.2 5.2
18/04:30am 13.0 8.8 5.5 60 3.5 WSW 17 24 9 13 1015.8 1015.8 5.2
18/04:00am 12.8 8.7 6.3 64 3.1 WSW 17 22 9 12 1015.4 1015.4 5.2
18/03:30am 13.5 8.8 6.2 61 3.5 WSW 20 32 11 17 1015.0 1015.0 5.2
18/03:00am 13.8 9.2 6.3 60 3.6 SW 20 30 11 16 1014.6 1014.5 5.2
18/02:30am 13.9 9.1 5.7 57 3.9 SW 20 26 11 14 1014.3 1014.2 5.2
18/02:00am 13.8 9.9 7.0 63 3.3 SW 17 24 9 13 1014.0 1013.9 5.2
18/01:30am 13.5 10.1 7.8 68 2.8 SW 15 20 8 11 1013.7 1013.6 5.2
18/01:00am 13.9 10.1 7.4 65 3.2 WSW 17 24 9 13 1013.5 1013.4 5.2
18/12:30am 13.9 9.8 7.8 66 3.0 SW 19 24 10 13 1013.6 1013.5 5.2
18/12:00am 14.2 9.0 7.3 63 3.4 WSW 24 33 13 18 1013.6 1013.5 5.2
 
Date/Time
WST
Temp
°C
App
Temp
°C
Dew
Point
°C
Rel
Hum
%
Delta-T
°C
Wind Press
QNH
hPa
Press
MSL
hPa
Rain since
9am
mm
Dir  Spd
km/h
Gust
km/h
Spd
kts
Gust
kts
17/11:30pm 14.6 8.9 8.2 65 3.2 WSW 28 41 15 22 1013.3 1013.2 5.2
17/11:00pm 14.7 9.8 9.9 73 2.5 WSW 26 33 14 18 1013.2 1013.1 5.2
17/10:30pm 14.5 10.3 11.1 80 1.8 WSW 24 35 13 19 1012.7 1012.6 5.2
17/10:02pm 14.6 10.0 12.4 87 1.2 WSW 28 46 15 25 1012.5 1012.4 5.2
17/10:00pm 14.5 9.5 12.3 87 1.2 WSW 30 46 16 25 1012.5 1012.4 5.2
17/09:30pm 14.8 10.4 12.8 88 1.1 WSW 28 39 15 21 1012.1 1012.0 5.0
17/09:04pm 15.0 10.6 13.0 88 1.1 WNW 28 48 15 26 1011.9 1011.8 5.0
17/09:00pm 15.5 12.4 13.4 87 1.2 WNW 22 28 12 15 1012.0 1011.9 4.2
17/08:38pm 15.2 11.1 13.8 91 0.8 WNW 28 41 15 22 1011.6 1011.5 4.2
17/08:30pm 15.1 10.6 13.7 91 0.8 WNW 30 41 16 22 1011.6 1011.5 4.2
17/08:21pm 15.0 10.8 13.6 91 0.8 W 28 63 15 34 1011.6 1011.5 4.0
17/08:20pm 14.9 10.7 13.5 91 0.8 W 28 63 15 34 1011.6 1011.5 3.8
17/08:19pm 14.9 11.1 13.5 91 0.8 W 26 63 14 34 1011.7 1011.6 3.6
17/08:01pm 15.5 11.3 13.5 88 1.1 WNW 28 46 15 25 1011.4 1011.3 3.0
17/08:00pm 15.7 11.5 13.6 87 1.2 WNW 28 46 15 25 1011.5 1011.4 2.8
17/07:59pm 15.9 11.7 13.4 85 1.4 WNW 28 46 15 25 1011.5 1011.4 2.0
17/07:30pm 15.7 12.0 12.8 83 1.6 NW 24 33 13 18 1011.0 1010.9 1.2
17/07:00pm 15.0 10.6 13.0 88 1.1 NW 28 41 15 22 1010.8 1010.7 1.2
17/06:50pm 15.3 10.9 13.0 86 1.3 NW 28 46 15 25 1010.8 1010.7 1.2
17/06:33pm 15.1 11.5 12.9 87 1.2 NW 24 37 13 20 1010.5 1010.4 0.4
17/06:30pm 15.1 10.7 12.9 87 1.2 NW 28 39 15 21 1010.5 1010.4 0.4
17/06:20pm 14.9 8.1 13.1 89 1.0 WNW 41 63 22 34 1010.4 1010.3 0.4
17/06:13pm 17.2 10.9 11.1 67 3.3 NW 35 63 19 34 1010.4 1010.3 0.0
17/06:00pm 17.3 10.6 9.5 60 4.1 NW 35 44 19 24 1010.0 1009.9 0.0
17/05:52pm 17.2 10.8 9.4 60 4.1 NW 33 52 18 28 1010.0 1009.9 0.0
17/05:30pm 17.4 11.2 10.0 62 3.9 NW 33 46 18 25 1009.7 1009.6 0.0
17/05:00pm 18.2 11.9 9.7 57 4.5 NW 33 43 18 23 1009.7 1009.6 0.0
17/04:30pm 18.8 12.9 10.5 58 4.5 NW 32 44 17 24 1009.5 1009.4 0.0
17/04:00pm 18.6 12.1 9.1 54 5.0 NW 33 44 18 24 1009.3 1009.2 0.0
17/03:30pm 18.6 13.5 10.6 59 4.3 NW 28 41 15 22 1009.5 1009.4 0.0
17/03:01pm 19.2 13.3 10.5 57 4.7 WNW 32 50 17 27 1009.4 1009.3 0.0
17/03:00pm 18.8 12.6 10.0 56 4.7 WNW 33 50 18 27 1009.4 1009.3 0.0
17/02:34pm 18.7 12.3 8.5 51 5.3 NW 32 50 17 27 1009.4 1009.3 0.0
17/02:30pm 19.0 13.2 9.6 54 5.0 NW 30 39 16 21 1009.5 1009.4 0.0
17/02:00pm 19.1 12.8 9.0 52 5.3 NW 32 41 17 22 1009.7 1009.6 0.0
17/01:47pm 19.1 13.7 9.5 53 5.1 NW 28 46 15 25 1009.7 1009.6 0.0
17/01:30pm 17.9 11.7 10.2 60 4.1 WNW 33 46 18 25 1010.0 1009.9 0.0
17/01:18pm 18.2 12.3 10.4 60 4.2 WNW 32 50 17 27 1010.0 1009.9 0.0
17/01:00pm 18.8 11.3 7.9 49 5.6 WNW 37 50 20 27 1009.8 1009.7 0.0
17/12:30pm 19.1 13.6 9.2 52 5.2 WNW 28 46 15 25 1010.1 1010.0 0.0
17/12:28pm 18.6 12.8 8.1 50 5.4 WNW 28 46 15 25 1010.1 1010.0 0.0
17/12:00pm 18.6 11.7 7.1 47 5.8 NW 33 43 18 23 1010.2 1010.1 0.0
17/11:30am 18.2 11.4 7.6 50 5.4 W 33 41 18 22 1010.2 1010.1 0.0
17/11:00am 18.4 12.0 9.5 56 4.7 WNW 33 46 18 25 1010.4 1010.3 0.0
17/10:30am 18.2 12.1 8.3 52 5.1 W 30 39 16 21 1010.4 1010.3 0.0
17/10:00am 17.5 11.4 8.1 54 4.8 WNW 30 43 16 23 1010.3 1010.2 0.0
17/09:30am 17.7 11.8 10.6 63 3.8 WNW 32 44 17 24 1009.9 1009.8 0.0
17/09:00am 16.6 11.7 11.2 70 2.9 W 28 35 15 19 1009.8 1009.7 9.6
17/08:30am 15.7 13.2 14.1 90 0.9 WNW 20 26 11 14 1009.7 1009.6 9.6
17/08:24am 15.3 12.3 13.7 90 0.9 WNW 22 30 12 16 1009.7 1009.6 9.6
17/08:06am 14.6 10.1 12.6 88 1.1 W 28 43 15 23 1009.8 1009.7 9.6
17/08:00am 15.9 11.7 12.3 79 2.0 W 26 35 14 19 1009.6 1009.5 7.8
17/07:30am 14.7 13.7 13.3 91 0.8 W 11 17 6 9 1009.3 1009.2 7.8
17/07:00am 14.4 12.9 13.0 91 0.8 W 13 17 7 9 1008.9 1008.8 7.2
17/06:43am 13.6 10.5 12.1 91 0.8 W 20 28 11 15 1008.8 1008.7 7.2
17/06:30am 13.6 9.4 12.5 93 0.6 WNW 26 44 14 24 1008.5 1008.4 7.2
17/06:27am 13.8 10.4 12.5 92 0.7 WNW 22 44 12 24 1008.5 1008.4 7.2
17/06:15am 13.7 10.8 12.4 92 0.7 W 19 24 10 13 1008.3 1008.2 6.4
17/06:00am 14.0 11.1 12.9 93 0.6 WNW 20 30 11 16 1008.3 1008.2 6.4
17/05:47am 13.8 10.8 12.5 92 0.7 WNW 20 32 11 17 1008.0 1007.9 4.4
17/05:30am 14.1 13.3 12.8 92 0.7 WNW 9 13 5 7 1007.7 1007.6 3.8
17/05:23am 14.2 13.0 12.9 92 0.7 W 11 15 6 8 1007.6 1007.5 3.8
17/05:10am 14.5 12.2 12.9 90 0.9 W 17 24 9 13 1007.6 1007.5 3.8
17/05:00am 14.6 11.7 12.2 85 1.3 W 19 26 10 14 1007.5 1007.4 3.2
17/04:30am 14.7 10.9 11.3 80 1.8 WSW 22 30 12 16 1007.3 1007.2 3.2
17/04:00am 15.2 11.6 11.7 79 1.9 W 22 28 12 15 1007.1 1007.0 3.2
17/03:30am 15.4 11.5 10.7 73 2.5 W 22 30 12 16 1006.8 1006.7 3.2
17/03:00am 14.9 11.5 11.4 79 1.9 WSW 20 26 11 14 1006.7 1006.6 3.2
17/02:30am 15.1 11.9 12.0 82 1.7 WSW 20 30 11 16 1006.4 1006.3 3.2
17/02:00am 14.4 12.4 12.6 89 1.0 WNW 15 22 8 12 1006.4 1006.3 3.2
17/01:39am 14.3 11.3 12.5 89 1.0 W 20 26 11 14 1006.4 1006.3 3.2
17/01:30am 14.7 9.9 12.9 89 1.0 W 30 48 16 26 1006.6 1006.5 3.2
17/01:28am 14.8 9.4 12.8 88 1.1 W 33 48 18 26 1006.5 1006.4 3.2
17/01:23am 15.2 10.7 12.5 84 1.5 W 28 48 15 26 1006.5 1006.4 3.2
17/01:00am 15.8 11.5 10.9 72 2.6 W 24 35 13 19 1006.5 1006.4 3.2
17/12:30am 15.3 11.0 10.8 74 2.4 W 24 35 13 19 1006.7 1006.6 3.2
17/12:00am 15.4 10.1 11.3 76 2.2 W 30 43 16 23 1006.5 1006.4 3.2
 
Date/Time
WST
Temp
°C
App
Temp
°C
Dew
Point
°C
Rel
Hum
%
Delta-T
°C
Wind Press
QNH
hPa
Press
MSL
hPa
Rain since
9am
mm
Dir  Spd
km/h
Gust
km/h
Spd
kts
Gust
kts
16/11:40pm 14.9 10.3 12.2 84 1.5 WNW 28 41 15 22 1006.5 1006.4 3.0
16/11:30pm 14.7 9.1 12.1 84 1.4 WNW 33 46 18 25 1006.4 1006.3 3.0
16/11:29pm 14.7 9.3 12.1 84 1.4 WNW 32 46 17 25 1006.3 1006.2 3.0
16/11:00pm 15.6 10.1 12.5 82 1.7 WNW 33 48 18 26 1006.0 1005.9 2.4
16/10:39pm 15.4 9.3 13.1 86 1.3 WNW 37 50 20 27 1005.7 1005.6 2.4
16/10:30pm 15.0 8.5 12.8 87 1.2 WNW 39 54 21 29 1005.6 1005.5 2.4
16/10:23pm 15.2 8.4 13.2 88 1.1 WNW 41 57 22 31 1005.4 1005.3 2.4
16/10:17pm 16.7 9.9 11.8 73 2.7 WNW 39 57 21 31 1005.6 1005.5 2.0
16/10:00pm 16.4 9.3 12.2 76 2.3 WNW 41 56 22 30 1005.2 1005.1 2.0
16/09:30pm 15.4 8.7 13.3 87 1.2 NW 41 56 22 30 1005.1 1005.0 2.0
16/09:09pm 16.1 9.8 12.3 78 2.1 NW 37 57 20 31 1004.7 1004.6 2.0
16/09:00pm 15.5 8.7 13.0 85 1.4 NW 41 54 22 29 1004.8 1004.7 2.0
16/08:35pm 15.9 8.8 12.1 78 2.1 NW 41 59 22 32 1004.8 1004.7 1.8
16/08:30pm 15.8 8.3 12.0 78 2.1 NW 43 59 23 32 1004.7 1004.6 1.8
16/08:08pm 16.2 7.8 11.2 72 2.7 NW 46 65 25 35 1004.4 1004.3 1.6
16/08:00pm 16.8 8.2 10.4 66 3.4 NNW 46 63 25 34 1004.1 1004.0 1.4
16/07:30pm 16.4 8.3 10.2 66 3.3 NW 43 65 23 35 1003.7 1003.6 1.4
16/07:00pm 16.0 6.9 9.7 66 3.3 NW 48 72 26 39 1003.6 1003.5 1.4
16/06:31pm 14.8 6.4 11.1 78 2.0 NW 46 72 25 39 1003.5 1003.4 1.4
16/06:30pm 14.9 6.9 11.2 78 2.0 NW 44 63 24 34 1003.7 1003.6 1.4
16/06:00pm 15.9 5.5 9.4 65 3.4 NW 54 72 29 39 1003.4 1003.3 1.2
16/05:33pm 15.5 7.5 9.1 65 3.3 NW 41 59 22 32 1003.3 1003.2 1.2
16/05:30pm 15.5 7.2 9.3 66 3.2 NW 43 59 23 32 1003.3 1003.2 1.2
16/05:00pm 17.0 7.6 7.2 52 4.9 NW 46 67 25 36 1002.8 1002.7 1.0
16/04:30pm 17.1 8.4 7.9 54 4.7 NW 43 61 23 33 1002.8 1002.7 1.0
16/04:24pm 17.2 8.2 6.5 49 5.3 NW 43 61 23 33 1002.8 1002.7 1.0
16/04:18pm 16.3 8.9 16.3 100 0.0 NW 50 78 27 42 1002.8 1002.7 1.0
16/04:13pm 16.1 7.9 16.1 100 0.0 NW 54 78 29 42 1003.0 1002.9 1.0
16/04:09pm 16.5 10.0 16.5 100 0.0 NW 46 78 25 42 1002.8 1002.7 1.0
16/04:00pm 17.1 12.5 17.1 100 0.0 NW 37 63 20 34 1003.0 1002.9 1.0
16/03:31pm 17.9 12.4 17.6 98 0.2 NW 43 69 23 37 1002.6 1002.5 0.4
16/03:30pm 17.8 12.6 17.5 98 0.2 NW 41 57 22 31 1002.7 1002.6 0.4
16/03:03pm 18.2 13.7 18.2 100 0.0 NW 39 65 21 35 1002.5 1002.4 0.4
16/03:00pm 18.1 13.5 18.1 100 0.0 NW 39 52 21 28 1002.6 1002.5 0.4
16/02:30pm 18.3 12.5 18.3 100 0.0 NW 46 65 25 35 1002.8 1002.7 0.4
16/02:05pm 18.9 12.6 18.9 100 0.0 NW 50 69 27 37 1002.7 1002.6 0.4
16/02:00pm 19.5 14.1 19.3 99 0.1 NW 46 63 25 34 1002.4 1002.3 0.4
16/01:31pm 19.9 14.0 19.7 99 0.1 NW 50 69 27 37 1002.7 1002.6 0.4
16/01:30pm 19.5 13.1 19.5 100 0.0 NW 52 69 28 37 1002.7 1002.6 0.4
16/01:00pm 19.6 13.9 19.4 99 0.1 WNW 48 67 26 36 1002.8 1002.7 0.4
16/12:30pm 19.4 13.3 18.4 94 0.6 WNW 48 69 26 37 1002.7 1002.6 0.4
16/12:00pm 19.3 9.9 10.0 55 5.0 NW 50 72 27 39 1002.4 1002.3 0.4
16/11:30am 18.5 8.3 8.5 52 5.2 NW 52 70 28 38 1002.6 1002.5 0.4
16/11:00am 18.8 8.2 6.9 46 6.0 NW 52 70 28 38 1002.5 1002.4 0.4
16/10:30am 17.2 8.8 8.9 58 4.3 NW 43 70 23 38 1002.7 1002.6 0.4
16/10:10am 16.8 8.5 10.2 65 3.5 NW 44 80 24 43 1002.0 1001.9 0.2
16/10:00am 18.0 11.3 9.7 58 4.4 NW 35 54 19 29 1002.3 1002.2 0.2
16/09:39am 16.5 11.9 12.3 76 2.3 NW 28 54 15 29 1001.8 1001.7 0.2
16/09:30am 15.8 10.9 12.7 82 1.7 NW 30 41 16 22 1002.2 1002.1 0.2
16/09:16am 15.6 11.1 13.7 88 1.1 NW 30 50 16 27 1002.0 1001.9 0.2
16/09:13am 15.9 11.5 14.0 88 1.1 NW 30 43 16 23 1002.0 1001.9 0.0
16/09:00am 15.7 10.7 14.1 90 0.9 NW 33 48 18 26 1001.8 1001.7 7.8
16/08:43am 15.7 10.3 13.9 89 1.0 NW 35 46 19 25 1001.3 1001.2 7.0
16/08:31am 15.3 9.6 14.1 92 0.7 WNW 37 56 20 30 1001.2 1001.1 6.8
16/08:30am 15.5 9.8 14.3 92 0.7 WNW 37 52 20 28 1001.5 1001.4 6.8
16/08:20am 15.6 10.8 14.6 94 0.6 WNW 33 56 18 30 1001.0 1000.9 6.6
16/08:00am 15.5 10.8 14.8 96 0.4 WNW 33 46 18 25 1001.1 1001.0 5.6
16/07:51am 15.5 10.8 14.8 96 0.4 NW 33 50 18 27 1000.9 1000.8 5.0
16/07:48am 15.9 12.3 15.2 96 0.4 NW 28 50 15 27 1000.7 1000.6 4.8
16/07:38am 16.4 12.1 15.5 94 0.5 NNW 32 44 17 24 1000.6 1000.5 3.0
16/07:30am 16.6 13.1 15.4 93 0.7 NNW 28 41 15 22 1000.6 1000.5 2.4
16/07:26am 16.5 13.2 15.1 91 0.8 N 26 41 14 22 1000.3 1000.3 1.2
16/07:25am 16.5 13.6 15.0 91 0.9 N 24 35 13 19 1000.3 1000.3 1.0
16/07:00am 17.5 13.3 13.5 77 2.3 N 28 37 15 20 1000.1 1000.1 0.0
16/06:30am 16.7 12.4 13.1 79 2.0 N 28 37 15 20 1000.3 1000.3 0.0

Other Formats:

Comma delimited format used in spreadsheet applications
http://www.bom.gov.au/fwo/IDW60801/IDW60801.94609.axf

JavaScript Object Notation format (JSON) in row-major order
http://www.bom.gov.au/fwo/IDW60801/IDW60801.94609.json